Flight Track Log - Related Links

Times and Time Zones

All times are in EDT time to prevent confusion due to time zone crossing. See the SWA983 flight status page for this flight to view local times or setup timezone preferences in your user account.

Time Position Orientation Groundspeed Altitude Reporting Facility
EDT Latitude Longitude Course Direction KTS MPH feet Rate Location/Type
Fri 03:39:59 PM 39.1167 -76.6167 90° East 192 221 3,400  Level Potomac TRACON
Fri 03:42:07 PM 39.0561 -76.4656 117° Southeast 230 265 9,300 2,617 Climbing Washington Center
Fri 03:43:07 PM 39.0275 -76.3664 110° East 263 303 11,600 2,900 Climbing Washington Center
Fri 03:44:07 PM 39.0325 -76.2356 87° East 320 368 15,100 3,400 Climbing Washington Center
Fri 03:45:00 PM 39.0333 -75.9706 90° East  Level FlightAware Approximate
Fri 03:45:07 PM 39.0436 -76.0861 84° East 350 403 18,400  Level Washington Center
Fri 03:46:07 PM 39.0483 -75.9364 88° East 385 443 21,200 2,300 Climbing Washington Center
Fri 03:47:07 PM 39.0569 -75.7867 86° East 406 467 23,000 900 Climbing Washington Center
Fri 03:48:07 PM 39.0633 -75.6236 87° East 430 495 23,000  Level Washington Center
Fri 03:49:07 PM 39.0717 -75.4606 86° East 443 510 23,000  Level Washington Center
Fri 03:50:07 PM 39.0775 -75.3028 87° East 448 516 23,000  Level Washington Center
Fri 03:51:08 PM 39.0833 -75.1450 87° East 441 507 23,000  Level Washington Center
Fri 03:52:07 PM 39.0908 -74.9844 87° East 441 507 23,000  Level Washington Center
Fri 03:53:07 PM 39.0964 -74.8267 87° East 441 507 23,000  Level Washington Center
Fri 03:54:07 PM 39.1683 -74.6894 56° Northeast 441 507 23,000  Level Washington Center
Fri 03:55:35 PM 39.2783 -74.5231 49° Northeast 426 490 23,000 -81 Level New York Center
Fri 03:56:36 PM 39.3594 -74.3958 50° Northeast 446 513 22,800 -650 Descending New York Center
Fri 03:57:35 PM 39.4403 -74.2736 49° Northeast 451 519 21,700 -908 Descending New York Center
Fri 03:58:35 PM 39.5169 -74.1481 52° Northeast 456 525 21,000 -694 Descending New York Center
Fri 03:59:36 PM 39.5956 -74.0281 50° Northeast 451 519 20,300 -843 Descending New York Center
Fri 04:00:36 PM 39.6717 -73.9075 51° Northeast 446 513 19,300 -950 Descending New York Center
Fri 04:01:36 PM 39.7356 -73.7808 57° Northeast 433 498 18,400 -1,017 Descending New York Center
Fri 04:02:34 PM 39.7828 -73.6422 66° East 414 476 17,300 -1,068 Descending New York Center
Fri 04:03:34 PM 39.8339 -73.5119 63° Northeast 404 465 16,300 -1,041 Descending New York Center
Fri 04:04:35 PM 39.8914 -73.3708 62° Northeast 398 458 15,200 -1,186 Descending New York Center
Fri 04:06:26 PM 40.0264 -73.2122 42° Northeast 364 419 12,900 -1,544 Descending Boston Center
Fri 04:07:26 PM 40.1183 -73.1428 30° Northeast 370 426 10,800 -1,983 Descending Boston Center
Fri 04:08:27 PM 40.2125 -73.0706 30° Northeast 380 437 8,900 -942 Descending Boston Center
Fri 04:09:27 PM 40.2964 -73.0006 32° Northeast 372 428 8,900 -663 Level Boston Center
Fri 04:11:37 PM 40.4833 -72.8500 31° Northeast 331 381 6,800 -1,137 Descending New York TRACON
Fri 04:12:37 PM 40.5667 -72.8333 North 314 361 5,300 -1,450 Descending New York TRACON
Fri 04:13:37 PM 40.6500 -72.8500 351° North 305 351 3,900 -1,200 Descending New York TRACON
Fri 04:14:37 PM 40.7333 -72.8500 360° North 290 334 2,900 -905 Descending New York TRACON
Fri 04:15:43 PM 40.8167 -72.8667 351° North 269 310 2,000 -450 Descending New York TRACON
Fri 04:16:37 PM 40.8833 -72.9000 339° North 251 289 2,000  Level New York TRACON
Fri 04:17:37 PM 40.9000 -72.9500 294° West 176 203 2,000  Level New York TRACON
Fri 04:18:37 PM 40.8833 -72.9833 237° Southwest 126 145 2,000 -150 Level New York TRACON
Fri 04:19:37 PM 40.8667 -73.0167 237° Southwest 112 129 1,700 -400 Descending New York TRACON
Fri 04:20:37 PM 40.8333 -73.0500 217° Southwest 98 113 1,200 -500 Descending New York TRACON

Login

Don't have an account? Register now (free) for customized features, flight alerts, and more!